createdAt,value
2022-08-22T04:04:34.272Z,0.00
2022-08-22T04:05:35.207Z,0.00
2022-08-22T04:06:35.252Z,0.00
2022-08-22T04:07:35.165Z,0.00
2022-08-22T04:08:35.155Z,0.00
2022-08-22T04:09:35.165Z,0.00
2022-08-22T04:10:35.132Z,0.00
2022-08-22T04:11:35.121Z,0.00
2022-08-22T04:12:35.112Z,0.00
2022-08-22T04:13:35.114Z,0.00
2022-08-22T04:14:35.087Z,0.00
2022-08-22T04:15:35.080Z,0.00
2022-08-22T04:16:35.094Z,0.00
2022-08-22T04:17:35.072Z,0.00
2022-08-22T04:18:35.041Z,0.00
2022-08-22T04:19:35.041Z,0.00
2022-08-22T04:20:35.026Z,0.00
2022-08-22T04:21:35.015Z,0.00
2022-08-22T04:22:35.011Z,0.00
2022-08-22T04:23:34.988Z,0.00
2022-08-22T04:24:35.002Z,0.00
2022-08-22T04:25:34.962Z,0.00
2022-08-22T04:26:34.967Z,5.62
2022-08-22T04:27:34.945Z,5.62
2022-08-22T04:28:34.943Z,5.62
2022-08-22T04:29:34.919Z,5.62
2022-08-22T04:30:34.929Z,5.62
2022-08-22T04:31:34.917Z,5.62
2022-08-22T04:32:34.898Z,5.62
2022-08-22T04:33:34.896Z,5.62
2022-08-22T04:34:34.930Z,11.25
2022-08-22T04:35:34.875Z,11.25
2022-08-22T04:36:34.855Z,11.25
2022-08-22T04:37:34.845Z,11.25
2022-08-22T04:38:34.818Z,11.25
2022-08-22T04:39:34.851Z,11.25
2022-08-22T04:40:34.796Z,16.88
2022-08-22T04:41:34.798Z,16.88
2022-08-22T04:42:34.803Z,16.88
2022-08-22T04:43:34.809Z,16.88
2022-08-22T04:44:34.797Z,16.88
2022-08-22T04:45:34.760Z,16.88
2022-08-22T04:46:37.255Z,22.50
2022-08-22T04:47:34.729Z,22.50
2022-08-22T04:48:34.736Z,22.50
2022-08-22T04:49:34.717Z,22.50
2022-08-22T04:50:34.693Z,22.50
2022-08-22T04:51:34.696Z,28.12
2022-08-22T04:52:34.684Z,28.12
2022-08-22T04:53:34.660Z,28.12
2022-08-22T04:54:34.645Z,28.12
2022-08-22T04:55:34.629Z,28.12
2022-08-22T04:56:34.629Z,33.75
2022-08-22T04:57:34.618Z,33.75
2022-08-22T04:58:34.606Z,33.75
2022-08-22T04:59:34.608Z,33.75
2022-08-22T05:00:34.577Z,33.75
2022-08-22T05:01:34.628Z,33.75
2022-08-22T05:02:34.562Z,39.38
2022-08-22T05:03:34.551Z,39.38
2022-08-22T05:04:34.542Z,39.38
2022-08-22T05:05:34.576Z,39.38
2022-08-22T05:06:34.519Z,39.38
2022-08-22T05:07:35.992Z,45.00
2022-08-22T05:08:34.486Z,45.00
2022-08-22T05:09:34.482Z,45.00
2022-08-22T05:10:34.484Z,45.00
2022-08-22T05:11:34.466Z,45.00
2022-08-22T05:12:34.450Z,50.62
2022-08-22T05:13:34.458Z,50.62
2022-08-22T05:14:34.417Z,50.62
2022-08-22T05:15:34.632Z,50.62
2022-08-22T05:16:34.404Z,50.62
2022-08-22T05:17:34.399Z,56.25
2022-08-22T05:18:34.389Z,56.25
2022-08-22T05:19:34.367Z,56.25
2022-08-22T05:20:34.369Z,56.25
2022-08-22T05:21:34.338Z,56.25
2022-08-22T05:22:34.336Z,56.25
2022-08-22T05:23:34.323Z,61.88
2022-08-22T05:24:34.333Z,61.88
2022-08-22T05:25:36.398Z,61.88
2022-08-22T05:26:34.292Z,61.88
2022-08-22T05:27:34.290Z,61.88
2022-08-22T05:28:34.279Z,61.88
2022-08-22T05:29:34.247Z,67.50
2022-08-22T05:30:34.315Z,67.50
2022-08-22T05:31:34.228Z,67.50
2022-08-22T05:32:34.218Z,67.50
2022-08-22T05:33:34.214Z,67.50
2022-08-22T05:34:34.205Z,67.50
2022-08-22T05:35:34.197Z,73.12
2022-08-22T05:36:34.221Z,73.12
2022-08-22T05:37:34.180Z,73.12
2022-08-22T05:38:34.201Z,73.12
2022-08-22T05:39:34.244Z,73.12
2022-08-22T05:40:34.149Z,73.12
2022-08-22T05:41:34.145Z,73.12
2022-08-22T05:42:34.147Z,78.75
2022-08-22T05:43:34.119Z,78.75
2022-08-22T05:44:34.093Z,78.75
2022-08-22T05:45:34.094Z,78.75
2022-08-22T05:46:34.072Z,78.75
2022-08-22T05:47:34.082Z,78.75
2022-08-22T05:48:34.083Z,78.75
2022-08-22T05:49:34.050Z,84.38
2022-08-22T05:50:34.058Z,84.38
2022-08-22T05:51:34.039Z,84.38
2022-08-22T05:52:34.005Z,84.38
2022-08-22T05:53:34.028Z,84.38
2022-08-22T05:54:34.617Z,84.38
2022-08-22T05:55:33.982Z,84.38
2022-08-22T05:56:34.177Z,84.38
2022-08-22T05:57:34.096Z,90.00
2022-08-22T05:58:34.586Z,90.00
2022-08-22T05:59:34.078Z,90.00
2022-08-22T06:00:33.909Z,90.00
2022-08-22T06:01:34.025Z,90.00
2022-08-22T06:02:34.435Z,90.00
2022-08-22T06:03:33.883Z,90.00
2022-08-22T06:04:33.874Z,90.00
2022-08-22T06:05:33.879Z,95.62
2022-08-22T06:06:33.842Z,95.62
2022-08-22T06:07:33.935Z,95.62
2022-08-22T06:08:33.859Z,95.62
2022-08-22T06:09:34.689Z,95.62
2022-08-22T06:10:34.029Z,95.62
2022-08-22T06:11:34.161Z,95.62
2022-08-22T06:12:34.109Z,95.62
2022-08-22T06:13:33.811Z,95.62
2022-08-22T06:14:33.757Z,101.25
2022-08-22T06:15:33.768Z,101.25
2022-08-22T06:16:33.762Z,101.25
2022-08-22T06:17:33.727Z,101.25
2022-08-22T06:18:33.719Z,101.25
2022-08-22T06:19:33.715Z,101.25
2022-08-22T06:20:33.731Z,101.25
2022-08-22T06:21:39.434Z,106.88
2022-08-22T06:22:33.678Z,106.88
2022-08-22T06:23:33.665Z,106.88
2022-08-22T06:24:33.662Z,106.88
2022-08-22T06:25:33.627Z,106.88
2022-08-22T06:26:33.616Z,106.88
2022-08-22T06:27:33.618Z,106.88
2022-08-22T06:28:33.607Z,106.88
2022-08-22T06:29:33.602Z,106.88
2022-08-22T06:30:33.583Z,112.50
2022-08-22T06:31:33.570Z,112.50
2022-08-22T06:32:58.990Z,112.50
2022-08-22T06:33:33.553Z,112.50
2022-08-22T06:34:33.578Z,112.50
2022-08-22T06:35:33.548Z,112.50
2022-08-22T06:36:33.579Z,112.50
2022-08-22T06:37:33.758Z,112.50
2022-08-22T06:38:34.299Z,112.50
2022-08-22T06:39:33.487Z,112.50
2022-08-22T06:40:33.461Z,112.50
2022-08-22T06:41:33.461Z,118.12
2022-08-22T06:42:33.460Z,118.12
2022-08-22T06:43:33.448Z,118.12
2022-08-22T06:44:33.450Z,118.12
2022-08-22T06:45:33.435Z,118.12
2022-08-22T06:46:33.400Z,118.12
2022-08-22T06:47:33.405Z,118.12
2022-08-22T06:48:33.372Z,123.75
2022-08-22T06:49:33.402Z,123.75
2022-08-22T06:50:33.363Z,123.75
2022-08-22T06:51:33.366Z,123.75
2022-08-22T06:52:33.343Z,123.75
2022-08-22T06:53:33.354Z,123.75
2022-08-22T06:54:34.476Z,123.75
2022-08-22T06:55:33.299Z,129.38
2022-08-22T06:56:33.296Z,129.38
2022-08-22T06:57:33.285Z,129.38
2022-08-22T06:58:34.131Z,129.38
2022-08-22T06:59:33.265Z,129.38
2022-08-22T07:00:33.245Z,129.38
2022-08-22T07:01:33.285Z,129.38
2022-08-22T07:02:33.245Z,129.38
2022-08-22T07:03:33.235Z,129.38
2022-08-22T07:04:33.211Z,129.38
2022-08-22T07:05:33.195Z,135.00
2022-08-22T07:06:33.199Z,135.00
2022-08-22T07:07:33.174Z,135.00
2022-08-22T07:08:37.169Z,135.00
2022-08-22T07:09:33.216Z,135.00
2022-08-22T07:10:33.126Z,135.00
2022-08-22T07:11:33.142Z,135.00
2022-08-22T07:12:33.320Z,135.00
2022-08-22T07:13:33.102Z,140.62
2022-08-22T07:14:33.130Z,140.62
2022-08-22T07:15:33.083Z,140.62
2022-08-22T07:16:33.061Z,140.62
2022-08-22T07:17:33.056Z,140.62
2022-08-22T07:18:33.037Z,140.62
2022-08-22T07:19:33.057Z,140.62
2022-08-22T07:20:33.024Z,146.25
2022-08-22T07:21:36.149Z,146.25
2022-08-22T07:22:32.992Z,146.25
2022-08-22T07:23:32.983Z,151.88
2022-08-22T07:24:32.984Z,151.88
2022-08-22T07:25:33.063Z,151.88
2022-08-22T07:26:33.003Z,151.88
2022-08-22T07:27:32.967Z,151.88
2022-08-22T07:28:37.225Z,151.88
2022-08-22T07:29:33.376Z,151.88
2022-08-22T07:30:32.959Z,157.50
2022-08-22T07:31:32.898Z,157.50
2022-08-22T07:32:32.925Z,157.50
2022-08-22T07:33:32.892Z,157.50
2022-08-22T07:34:33.086Z,157.50
2022-08-22T07:35:32.863Z,163.12
2022-08-22T07:36:32.871Z,163.12
2022-08-22T07:37:32.842Z,163.12
2022-08-22T07:38:32.818Z,168.75
2022-08-22T07:39:32.824Z,168.75
2022-08-22T07:40:32.875Z,168.75
2022-08-22T07:41:32.848Z,168.75
2022-08-22T07:42:32.779Z,168.75
2022-08-22T07:43:32.772Z,168.75
2022-08-22T07:44:32.800Z,168.75
2022-08-22T07:45:32.736Z,168.75
2022-08-22T07:46:32.747Z,168.75
2022-08-22T07:47:32.745Z,163.12
2022-08-22T07:48:32.717Z,163.12
2022-08-22T07:49:32.782Z,163.12
2022-08-22T07:50:32.697Z,163.12
2022-08-22T07:51:32.687Z,163.12
2022-08-22T07:52:32.745Z,168.75
2022-08-22T07:53:32.668Z,168.75
2022-08-22T07:54:32.645Z,168.75
2022-08-22T07:55:32.627Z,168.75
2022-08-22T07:56:32.641Z,168.75
2022-08-22T07:57:32.637Z,168.75
2022-08-22T07:58:32.600Z,168.75
2022-08-22T07:59:32.632Z,174.38
2022-08-22T08:00:32.574Z,174.38
2022-08-22T08:01:32.649Z,180.00
2022-08-22T08:02:32.633Z,180.00
2022-08-22T08:03:32.549Z,180.00
2022-08-22T08:04:35.803Z,185.62
2022-08-22T08:05:32.579Z,185.62
2022-08-22T08:06:32.549Z,185.62
2022-08-22T08:07:32.721Z,185.62
2022-08-22T08:08:33.273Z,191.25
2022-08-22T08:09:32.519Z,191.25
2022-08-22T08:10:32.528Z,191.25
2022-08-22T08:11:32.527Z,196.88
2022-08-22T08:12:32.457Z,196.88
2022-08-22T08:13:32.513Z,202.50
2022-08-22T08:14:32.544Z,213.75
2022-08-22T08:15:32.461Z,219.38
2022-08-22T08:16:32.405Z,225.00
2022-08-22T08:17:32.566Z,225.00
2022-08-22T08:18:32.390Z,230.62
2022-08-22T08:19:32.369Z,241.88
2022-08-22T08:20:32.415Z,247.50
2022-08-22T08:21:32.378Z,258.75
2022-08-22T08:22:32.401Z,270.00
2022-08-22T08:23:33.049Z,275.62
2022-08-22T08:24:39.975Z,286.88
2022-08-22T08:25:32.314Z,309.38
2022-08-22T08:26:32.567Z,320.62
2022-08-22T08:27:32.334Z,343.12
2022-08-22T08:28:32.284Z,348.75
2022-08-22T08:29:32.252Z,354.38
2022-08-22T08:30:32.323Z,348.75
2022-08-22T08:31:32.257Z,337.50
2022-08-22T08:32:32.287Z,337.50
2022-08-22T08:33:32.227Z,331.88
2022-08-22T08:34:32.274Z,320.62
2022-08-22T08:35:32.210Z,315.00
2022-08-22T08:36:32.190Z,326.25
2022-08-22T08:37:32.185Z,331.88
2022-08-22T08:38:32.185Z,337.50
2022-08-22T08:39:35.118Z,337.50
2022-08-22T08:40:32.144Z,348.75
2022-08-22T08:41:32.146Z,365.62
2022-08-22T08:42:32.853Z,365.62
2022-08-22T08:43:32.104Z,360.00
2022-08-22T08:44:32.330Z,360.00
2022-08-22T08:45:32.081Z,354.38
2022-08-22T08:46:32.116Z,348.75
2022-08-22T08:47:32.064Z,348.75
2022-08-22T08:48:32.036Z,360.00
2022-08-22T08:49:33.611Z,365.62
2022-08-22T08:50:32.049Z,371.25
2022-08-22T08:51:32.004Z,371.25
2022-08-22T08:52:32.020Z,371.25
2022-08-22T08:53:32.002Z,371.25
2022-08-22T08:54:31.999Z,376.88
2022-08-22T08:55:31.965Z,382.50
2022-08-22T08:56:32.010Z,388.12
2022-08-22T08:57:32.165Z,393.75
2022-08-22T08:58:31.934Z,388.12
2022-08-22T08:59:31.931Z,388.12
2022-08-22T09:00:32.830Z,388.12
2022-08-22T09:01:32.328Z,399.38
2022-08-22T09:02:33.888Z,410.62
2022-08-22T09:03:32.002Z,421.88
2022-08-22T09:04:31.942Z,427.50
2022-08-22T09:05:32.837Z,444.38
2022-08-22T09:06:31.859Z,753.75
2022-08-22T09:07:31.863Z,1451.25
2022-08-22T09:08:31.850Z,1839.38
2022-08-22T09:09:31.845Z,1850.62
2022-08-22T09:10:31.802Z,1816.88
2022-08-22T09:11:31.818Z,1828.12
2022-08-22T09:12:31.799Z,1738.12
2022-08-22T09:40:16.052Z,1749.38
2022-08-22T09:40:30.183Z,3262.50
2022-08-22T09:41:30.065Z,3183.75
2022-08-22T09:42:30.058Z,3003.75
2022-08-22T09:43:30.054Z,3099.38
2022-08-22T09:44:30.093Z,2947.50
2022-08-22T09:45:30.278Z,2970.00
2022-08-22T09:46:36.565Z,3076.88
2022-08-22T09:47:32.743Z,3155.62
2022-08-22T09:48:30.002Z,2885.62
2022-08-22T09:49:29.972Z,2390.62
2022-08-22T09:50:30.004Z,1890.00
2022-08-22T09:51:31.540Z,2559.38
2022-08-22T09:52:33.167Z,2126.25
2022-08-22T09:53:29.948Z,2317.50
2022-08-22T09:54:31.425Z,2098.12
2022-08-22T09:55:35.516Z,2480.62
2022-08-22T09:56:29.924Z,2553.75
2022-08-22T09:57:29.911Z,2480.62
2022-08-22T09:58:29.928Z,2531.25
2022-08-22T09:59:29.880Z,2660.62
2022-08-22T10:00:29.873Z,2531.25
2022-08-22T10:01:32.871Z,2615.62
2022-08-22T10:02:30.080Z,2244.38
2022-08-22T10:03:30.486Z,2688.75
2022-08-22T10:04:29.862Z,1906.88
2022-08-22T10:05:40.961Z,2272.50
2022-08-22T10:06:29.835Z,1563.75
2022-08-22T10:07:29.796Z,1828.12
2022-08-22T10:08:29.814Z,1805.62
2022-08-22T10:09:31.304Z,1631.25
2022-08-22T10:10:29.872Z,1513.12
2022-08-22T10:11:29.778Z,1366.88
2022-08-22T10:12:35.159Z,1192.50
2022-08-22T10:13:29.783Z,1119.38
2022-08-22T10:14:29.773Z,1085.62
2022-08-22T10:15:29.779Z,1057.50
2022-08-22T10:16:29.726Z,911.25
2022-08-22T10:17:29.935Z,877.50
2022-08-22T10:18:29.721Z,838.12
2022-08-22T10:19:29.687Z,832.50
2022-08-22T10:20:29.680Z,871.88
2022-08-22T10:21:29.668Z,855.00
2022-08-22T10:22:30.199Z,866.25
2022-08-22T10:23:29.650Z,1305.00
2022-08-22T10:24:29.671Z,1136.25
2022-08-22T10:25:29.659Z,1063.12
2022-08-22T10:26:29.632Z,1006.88
2022-08-22T10:27:29.660Z,990.00
2022-08-22T10:28:29.623Z,978.75
2022-08-22T10:29:29.617Z,1794.38
2022-08-22T10:30:29.601Z,984.38
2022-08-22T10:31:29.580Z,900.00
2022-08-22T10:32:29.583Z,911.25
2022-08-22T10:33:29.570Z,866.25
2022-08-22T10:34:29.545Z,871.88
2022-08-22T10:35:29.577Z,860.62
2022-08-22T10:36:29.518Z,855.00
2022-08-22T10:37:29.543Z,826.88
2022-08-22T10:38:29.511Z,787.50
2022-08-22T10:39:29.496Z,787.50
2022-08-22T10:40:29.509Z,810.00
2022-08-22T10:41:29.486Z,804.38
2022-08-22T10:42:30.155Z,832.50
2022-08-22T10:43:29.469Z,1186.88
2022-08-22T10:44:29.495Z,1046.25
2022-08-22T10:45:36.027Z,1569.38
2022-08-22T10:46:29.466Z,1389.38
2022-08-22T10:47:29.487Z,2317.50
2022-08-22T10:48:29.427Z,3161.25
2022-08-22T10:49:30.029Z,1625.62
2022-08-22T10:50:31.179Z,3127.50
2022-08-22T10:51:29.386Z,2491.88
2022-08-22T10:52:29.426Z,1856.25
2022-08-22T10:53:29.708Z,2272.50
2022-08-22T10:54:29.413Z,1496.25
2022-08-22T10:55:29.343Z,1310.62
2022-08-22T10:56:29.345Z,1158.75
2022-08-22T10:57:29.345Z,1063.12
2022-08-22T10:58:29.389Z,1012.50
2022-08-22T10:59:29.321Z,984.38
2022-08-22T11:00:29.312Z,1018.12
2022-08-22T11:01:37.039Z,1074.38
2022-08-22T11:02:29.286Z,973.12
2022-08-22T11:03:29.307Z,1006.88
2022-08-22T11:04:29.272Z,1018.12
2022-08-22T11:05:29.268Z,1265.62
2022-08-22T11:06:29.235Z,1001.25
2022-08-22T11:07:29.247Z,978.75
2022-08-22T11:08:29.253Z,1203.75
2022-08-22T11:09:31.183Z,1485.00
2022-08-22T11:10:29.274Z,1608.75
2022-08-22T11:11:32.683Z,1215.00
2022-08-22T11:12:34.686Z,1276.88
2022-08-22T11:13:29.316Z,1411.88
2022-08-22T11:14:29.176Z,2272.50
2022-08-22T11:15:34.903Z,1996.88
2022-08-22T11:16:29.162Z,2283.75
2022-08-22T11:17:32.315Z,1738.12
2022-08-22T11:18:30.504Z,2565.00
2022-08-22T11:19:29.114Z,3341.25
2022-08-22T11:20:29.108Z,3183.75
2022-08-22T11:21:29.128Z,2694.38
2022-08-22T11:22:29.070Z,3251.25
2022-08-22T11:23:31.403Z,3515.62
